Home   Weather   Sugar Land   Past weeks
Flag for USA

Past Weather in Sugar Land, Texas, USA — Yesterday and Last 2 Weeks

Currently: 69 °F. Scattered clouds. (Weather station: Houston Hobby Airport, USA). See more current weather

Past Weather in Sugar Land — Graph

°F

Sugar Land Temperature Yesterday

Maximum temperature yesterday: 77 °F (at 12:53 pm)
Minimum temperature yesterday: 57 °F (at 2:53 am)
Average temperature yesterday: 69 °F

High & Low Weather Summary for the Past Weeks

 TemperatureHumidityPressure
High85 °F (Apr 18, 1:53 pm)97% (Apr 10, 1:53 am)30.31 "Hg (Apr 10, 1:53 am)
Low54 °F (Apr 22, 6:53 am)20% (Apr 12, 2:53 pm)29.56 "Hg (Apr 10, 5:53 am)
Average73 °F71%29.99 "Hg
* Reported Apr 9 5:18 am — Apr 24 5:53 am, Sugar Land. Weather by CustomWeather, © 2024

Note: Actual official high and low records may vary slightly from our data, if they occured in-between our weather recording intervals... More about our weather records

Sugar Land Weather History for the Previous 24 Hours

Scroll right to see more
 ConditionsComfort  
Time TempWeatherWind HumidityBarometerVisibility
5:53 am
Wed, Apr 24
69 °FMostly cloudy.6 mph90%30.06 "Hg10 mi
5:43 am70 °FOvercast.6 mph87%30.04 "Hg10 mi
4:53 am71 °FOvercast.7 mph84%30.05 "Hg10 mi
3:53 am70 °FOvercast.6 mph87%30.06 "Hg10 mi
2:53 am71 °FOvercast.6 mph84%30.05 "Hg10 mi
2:30 am71 °FMostly cloudy.6 mph84%30.04 "Hg10 mi
1:53 am71 °FMostly cloudy.9 mph81%30.06 "Hg10 mi
12:53 am72 °FMostly cloudy.12 mph78%30.06 "Hg10 mi
12:09 am72 °FOvercast.9 mph78%30.06 "Hg10 mi
11:53 pm
Tue, Apr 23
72 °FMostly cloudy.9 mph78%30.07 "Hg10 mi
10:53 pm73 °FOvercast.8 mph76%30.07 "Hg10 mi
9:53 pm73 °FMostly cloudy.10 mph76%30.07 "Hg10 mi
9:30 pm73 °FMostly cloudy.10 mph74%30.04 "Hg10 mi
8:53 pm73 °FOvercast.7 mph74%30.04 "Hg10 mi
8:09 pm73 °FMostly cloudy.9 mph74%30.02 "Hg10 mi
7:53 pm73 °FOvercast.10 mph74%30.02 "Hg10 mi
6:53 pm74 °FMore clouds than sun.10 mph69%30.03 "Hg10 mi
5:53 pm75 °FBroken clouds.13 mph66%30.03 "Hg10 mi
4:53 pm76 °FMostly cloudy.13 mph64%30.04 "Hg10 mi
4:30 pm75 °FMostly cloudy.12 mph64%30.03 "Hg10 mi
3:53 pm76 °FBroken clouds.13 mph62%30.06 "Hg10 mi
2:53 pm75 °FCloudy.9 mph62%30.08 "Hg10 mi
1:53 pm76 °FMostly cloudy.14 mph60%30.09 "Hg10 mi
12:53 pm77 °FMore clouds than sun.13 mph58%30.10 "Hg10 mi
11:53 am76 °FBroken clouds.13 mph58%30.12 "Hg10 mi
10:53 am74 °FPartly sunny.13 mph62%30.12 "Hg10 mi
9:53 am73 °FBroken clouds.10 mph64%30.12 "Hg10 mi
9:21 am70 °FPartly sunny.10 mph68%30.11 "Hg10 mi
8:53 am69 °FPassing clouds.8 mph68%30.12 "Hg10 mi
7:53 am63 °FPassing clouds.5 mph75%30.11 "Hg10 mi
Weather by CustomWeather, © 2024

See weather overview